VTBS/BKK METAR and TAF weather

Enter ICAO airport designator
Station Type Date Time Source
VTBS METAR 2022/12/05 14:00 UTC NOAA

VTBS 051400Z 01007KT 9999 FEW020 28/24 Q1011 NOSIG


Station Type Date Time Source
VTBS Decoded METAR 2022/12/05 14:00 UTC NOAA

Chon Buri, Thailand (VTBS) 13-22N 100-59E 2M
Dec 05, 2022 - 09:00 AM EST / 2022.12.05 1400 UTC
Wind: from the N (010 degrees) at 8 MPH (7 KT):0
Visibility: greater than 7 mile(s):0
Sky conditions: mostly clear
Temperature: 82 F (28 C)
Dew Point: 75 F (24 C)
Relative Humidity: 78%
Pressure (altimeter): 29.85 in. Hg (1011 hPa)
ob: VTBS 051400Z 01007KT 9999 FEW020 28/24 Q1011 NOSIG
cycle: 14

Station Type Date Time Source
VTBS TAF 2022/12/05 12:00 UTC NOAA

TAF VTBS 051100Z 0512/0618 05008KT 9999 FEW030

Example: see airport list